createdAt,value
2019-02-10T00:00:36.990Z,99764.85
2019-02-10T00:03:03.621Z,99750.97
2019-02-10T00:05:29.747Z,99742.27
2019-02-10T00:07:55.889Z,99749.68
2019-02-10T00:10:22.000Z,99733.95
2019-02-10T00:13:22.702Z,99723.08
2019-02-10T00:15:48.947Z,99720.02
2019-02-10T00:18:15.159Z,99710.87
2019-02-10T00:20:41.604Z,99705.24
2019-02-10T00:23:07.743Z,99693.38
2019-02-10T00:25:33.875Z,99684.72
2019-02-10T00:28:01.624Z,99682.97
2019-02-10T00:30:27.770Z,99665.56
2019-02-10T00:32:53.883Z,99656.02
2019-02-10T00:35:20.074Z,99653.40
2019-02-10T00:37:46.122Z,99647.40
2019-02-10T00:40:12.417Z,99633.47
2019-02-10T00:42:38.445Z,99625.28
2019-02-10T00:45:04.557Z,99627.56
2019-02-10T00:47:30.712Z,99618.05
2019-02-10T00:49:56.959Z,99610.27
2019-02-10T00:52:23.120Z,99599.48
2019-02-10T00:54:49.322Z,99588.61
2019-02-10T00:57:15.560Z,99582.14
2019-02-10T00:59:41.711Z,99570.42
2019-02-10T01:02:07.829Z,99561.36
2019-02-10T01:04:34.002Z,99550.13
2019-02-10T01:07:00.102Z,99542.75
2019-02-10T01:09:26.229Z,99534.52
2019-02-10T01:11:52.350Z,99516.30
2019-02-10T01:14:18.452Z,99506.78
2019-02-10T01:16:44.583Z,99489.92
2019-02-10T01:19:10.962Z,99472.95
2019-02-10T01:21:37.094Z,99452.95
2019-02-10T01:24:03.236Z,99442.94
2019-02-10T01:26:29.388Z,99428.13
2019-02-10T01:28:55.517Z,99425.53
2019-02-10T01:31:21.722Z,99412.48
2019-02-10T01:33:47.834Z,99404.64
2019-02-10T01:36:13.972Z,99403.79
2019-02-10T01:38:40.094Z,99385.94
2019-02-10T01:41:06.208Z,99386.41
2019-02-10T01:43:32.341Z,99370.24
2019-02-10T01:45:58.487Z,99351.12
2019-02-10T01:48:24.591Z,99339.38
2019-02-10T01:50:50.725Z,99323.31
2019-02-10T01:53:16.989Z,99306.34
2019-02-10T01:55:43.135Z,99304.19
2019-02-10T01:58:09.406Z,99291.56
2019-02-10T02:00:36.251Z,99281.94
2019-02-10T02:03:02.370Z,99277.99
2019-02-10T02:05:28.970Z,99260.11
2019-02-10T02:07:55.171Z,99237.90
2019-02-10T02:10:21.697Z,99246.14
2019-02-10T02:12:47.833Z,99226.96
2019-02-10T02:15:14.336Z,99194.25
2019-02-10T02:17:40.472Z,99171.59
2019-02-10T02:20:08.288Z,99164.67
2019-02-10T02:22:37.322Z,99146.31
2019-02-10T02:25:08.667Z,99145.88
2019-02-10T02:27:34.869Z,99139.28
2019-02-10T02:30:01.006Z,99115.23
2019-02-10T02:32:27.098Z,99111.90
2019-02-10T02:34:53.231Z,99109.19
2019-02-10T02:37:19.333Z,99087.24
2019-02-10T02:39:45.679Z,99062.22
2019-02-10T02:42:11.816Z,99049.02
2019-02-10T02:44:37.808Z,99042.83
2019-02-10T02:47:03.948Z,99036.67
2019-02-10T02:49:30.115Z,99037.48
2019-02-10T02:51:56.258Z,99032.98
2019-02-10T02:54:22.488Z,99009.78
2019-02-10T02:56:48.629Z,99012.74
2019-02-10T02:59:14.811Z,99001.15
2019-02-10T03:01:40.958Z,98994.11
2019-02-10T03:04:07.178Z,98983.94
2019-02-10T03:06:45.105Z,98974.48
2019-02-10T03:09:12.033Z,98958.60
2019-02-10T03:11:38.182Z,98953.57
2019-02-10T03:14:06.194Z,98947.73
2019-02-10T03:16:32.326Z,98935.38
2019-02-10T03:18:58.374Z,98929.59
2019-02-10T03:21:24.558Z,98916.02
2019-02-10T03:23:50.598Z,98910.21
2019-02-10T03:26:18.620Z,98894.73
2019-02-10T03:28:44.860Z,98888.55
2019-02-10T03:31:10.988Z,98874.42
2019-02-10T03:33:37.151Z,98871.19
2019-02-10T03:36:03.262Z,98864.53
2019-02-10T03:38:29.273Z,98856.95
2019-02-10T03:40:55.412Z,98845.94
2019-02-10T03:43:21.587Z,98833.25
2019-02-10T03:45:47.713Z,98819.14
2019-02-10T03:48:13.856Z,98816.85
2019-02-10T03:50:40.006Z,98802.38
2019-02-10T03:53:06.162Z,98798.44
2019-02-10T03:55:32.310Z,98789.16
2019-02-10T03:57:58.442Z,98780.77
2019-02-10T04:00:24.483Z,98778.94
2019-02-10T04:02:50.588Z,98759.58
2019-02-10T04:05:16.733Z,98756.90
2019-02-10T04:07:42.961Z,98743.84
2019-02-10T04:10:09.345Z,98740.80
2019-02-10T04:12:35.464Z,98728.91
2019-02-10T04:15:01.642Z,98735.45
2019-02-10T04:17:27.774Z,98717.41
2019-02-10T04:19:53.892Z,98705.13
2019-02-10T04:22:20.024Z,98697.69
2019-02-10T04:24:46.121Z,98700.56
2019-02-10T04:27:12.250Z,98693.52
2019-02-10T04:29:38.401Z,98675.10
2019-02-10T04:32:04.532Z,98678.56
2019-02-10T04:34:33.736Z,98689.00
2019-02-10T04:36:59.979Z,98678.10
2019-02-10T04:39:26.201Z,98667.66
2019-02-10T04:41:52.433Z,98655.80
2019-02-10T04:44:18.550Z,98644.94
2019-02-10T04:46:44.685Z,98647.91
2019-02-10T04:49:10.733Z,98640.05
2019-02-10T04:51:36.952Z,98626.52
2019-02-10T04:54:03.088Z,98609.36
2019-02-10T04:56:29.238Z,98605.83
2019-02-10T04:58:55.393Z,98593.56
2019-02-10T05:01:21.547Z,98600.89
2019-02-10T05:03:47.686Z,98589.45
2019-02-10T05:06:13.807Z,98575.96
2019-02-10T05:08:40.046Z,98584.13
2019-02-10T05:11:06.202Z,98568.03
2019-02-10T05:13:32.309Z,98572.20
2019-02-10T05:15:58.454Z,98564.74
2019-02-10T05:18:24.575Z,98566.43
2019-02-10T05:20:50.702Z,98575.55
2019-02-10T05:23:16.843Z,98558.73
2019-02-10T05:25:42.961Z,98541.68
2019-02-10T05:28:09.128Z,98543.40
2019-02-10T05:30:35.193Z,98544.53
2019-02-10T05:33:01.348Z,98542.38
2019-02-10T05:35:27.601Z,98537.00
2019-02-10T05:37:53.729Z,98541.23
2019-02-10T05:40:19.817Z,98547.30
2019-02-10T05:42:45.853Z,98541.17
2019-02-10T05:45:11.988Z,98535.86
2019-02-10T05:47:38.056Z,98537.64
2019-02-10T05:50:05.935Z,98543.67
2019-02-10T05:52:32.259Z,98540.14
2019-02-10T05:54:58.746Z,98536.15
2019-02-10T05:57:24.834Z,98544.49
2019-02-10T05:59:50.931Z,98521.84
2019-02-10T06:02:21.793Z,98505.86
2019-02-10T06:04:48.015Z,98506.05
2019-02-10T06:07:16.791Z,98514.53
2019-02-10T06:09:43.232Z,98522.18
2019-02-10T06:12:09.373Z,98521.83
2019-02-10T06:14:35.491Z,98512.05
2019-02-10T06:17:01.640Z,98526.20
2019-02-10T06:19:27.848Z,98537.58
2019-02-10T06:21:53.982Z,98537.58
2019-02-10T06:24:20.138Z,98550.75
2019-02-10T06:26:46.367Z,98565.00
2019-02-10T06:29:12.622Z,98569.48
2019-02-10T06:31:38.810Z,98557.25
2019-02-10T06:34:04.904Z,98541.69
2019-02-10T06:36:31.069Z,98543.14
2019-02-10T06:38:57.208Z,98533.29
2019-02-10T06:41:23.739Z,98540.86
2019-02-10T06:43:49.884Z,98567.28
2019-02-10T06:46:15.997Z,98560.42
2019-02-10T06:48:42.191Z,98575.31
2019-02-10T06:51:08.409Z,98593.83
2019-02-10T06:53:34.839Z,98614.86
2019-02-10T06:56:01.054Z,98618.44
2019-02-10T06:58:27.424Z,98613.63
2019-02-10T07:00:55.436Z,98628.62
2019-02-10T07:03:29.218Z,98613.43
2019-02-10T07:05:55.328Z,98597.87
2019-02-10T07:08:21.498Z,98618.05
2019-02-10T07:10:47.622Z,98607.31
2019-02-10T07:13:20.092Z,98606.08
2019-02-10T07:16:23.523Z,98600.53
2019-02-10T07:19:18.968Z,98608.96
2019-02-10T07:21:45.123Z,98600.73
2019-02-10T07:24:40.824Z,98602.26
2019-02-10T07:27:10.559Z,98602.38
2019-02-10T07:29:51.775Z,98630.05
2019-02-10T07:32:21.446Z,98634.92
2019-02-10T07:35:00.232Z,98631.16
2019-02-10T07:37:35.846Z,98634.73
2019-02-10T07:40:20.677Z,98639.34
2019-02-10T07:42:56.467Z,98651.80
2019-02-10T07:45:26.177Z,98648.12
2019-02-10T07:48:02.097Z,98662.20
2019-02-10T07:50:43.981Z,98659.83
2019-02-10T07:53:16.708Z,98642.27
2019-02-10T07:55:55.514Z,98653.88
2019-02-10T07:58:40.497Z,98661.41
2019-02-10T08:01:19.470Z,98660.19
2019-02-10T08:03:55.142Z,98648.19
2019-02-10T08:06:24.862Z,98653.47
2019-02-10T08:08:54.623Z,98666.55
2019-02-10T08:11:39.289Z,98684.91
